Flight Track Log - Related Links

Times and Time Zones

All times are in EST time to prevent confusion due to time zone crossing. See the UAL1116 flight status page for this flight to view local times or setup timezone preferences in your user account.

Time Position Orientation Groundspeed Altitude Reporting Facility
EST Latitude Longitude Course Direction KTS MPH feet Rate Location/Type
Mon 05:54:00 PM 24.9327 -104.8586 312° West  Level Estimated
Mon 05:55:00 PM 25.0107 -104.9537 312° West  Level FlightAware Approximate
Mon 05:56:00 PM 25.0886 -105.0490 312° West  Level FlightAware Approximate
Mon 05:57:00 PM 25.1665 -105.1443 312° West  Level FlightAware Approximate
Mon 05:58:00 PM 25.2443 -105.2398 312° West  Level FlightAware Approximate
Mon 05:59:00 PM 25.3221 -105.3354 312° West  Level FlightAware Approximate
Mon 06:00:00 PM 25.3997 -105.4312 312° West  Level FlightAware Approximate
Mon 06:01:00 PM 25.4774 -105.5270 312° West  Level FlightAware Approximate
Mon 06:02:00 PM 25.5549 -105.6230 312° West  Level FlightAware Approximate
Mon 06:03:00 PM 25.6324 -105.7191 312° West  Level FlightAware Approximate
Mon 06:04:00 PM 25.7098 -105.8153 312° West  Level FlightAware Approximate
Mon 06:05:00 PM 25.7872 -105.9117 312° West  Level FlightAware Approximate
Mon 06:06:00 PM 25.8645 -106.0082 312° West  Level FlightAware Approximate
Mon 06:07:00 PM 25.9457 -106.1007 309° West  Level Estimated
Mon 06:08:00 PM 26.0228 -106.1975 312° West  Level FlightAware Approximate
Mon 06:09:00 PM 26.0999 -106.2944 312° West  Level FlightAware Approximate
Mon 06:10:00 PM 26.1769 -106.3914 312° West  Level FlightAware Approximate
Mon 06:11:00 PM 26.2539 -106.4886 311° West  Level FlightAware Approximate
Mon 06:12:00 PM 26.3307 -106.5859 311° West  Level FlightAware Approximate
Mon 06:13:00 PM 26.4076 -106.6833 311° West  Level FlightAware Approximate
Mon 06:14:00 PM 26.4843 -106.7808 311° West  Level FlightAware Approximate
Mon 06:15:00 PM 26.5610 -106.8785 311° West  Level FlightAware Approximate
Mon 06:16:00 PM 26.6418 -106.9720 306° West  Level Estimated
Mon 06:17:00 PM 26.7174 -107.0708 311° West  Level FlightAware Approximate
Mon 06:18:00 PM 26.7931 -107.1697 311° West  Level FlightAware Approximate
Mon 06:19:00 PM 26.8705 -107.2713 311° West  Level FlightAware Approximate
Mon 06:20:00 PM 26.9479 -107.3730 310° West  Level FlightAware Approximate
Mon 06:21:00 PM 27.0253 -107.4749 310° West  Level FlightAware Approximate
Mon 06:22:00 PM 27.1025 -107.5769 310° West  Level FlightAware Approximate
Mon 06:23:00 PM 27.1797 -107.6791 310° West  Level FlightAware Approximate
Mon 06:24:00 PM 27.2568 -107.7814 310° West  Level FlightAware Approximate
Mon 06:25:00 PM 27.3339 -107.8839 310° West  Level FlightAware Approximate
Mon 06:26:00 PM 27.4108 -107.9865 310° West  Level FlightAware Approximate
Mon 06:27:00 PM 27.4877 -108.0892 310° West  Level FlightAware Approximate
Mon 06:28:00 PM 27.5645 -108.1921 310° West  Level FlightAware Approximate
Mon 06:29:00 PM 27.6413 -108.2951 310° West  Level FlightAware Approximate
Mon 06:30:00 PM 27.7179 -108.3982 310° West  Level FlightAware Approximate
Mon 06:31:00 PM 27.7945 -108.5015 310° West  Level FlightAware Approximate
Mon 06:32:00 PM 27.8710 -108.6050 310° West  Level FlightAware Approximate
Mon 06:33:00 PM 27.9475 -108.7086 310° West  Level FlightAware Approximate
Mon 06:34:00 PM 28.0238 -108.8124 310° West  Level FlightAware Approximate
Mon 06:35:00 PM 28.1061 -108.9102 288° West  Level Estimated
Mon 06:36:00 PM 28.1779 -109.0181 307° West  Level FlightAware Approximate
Mon 06:37:00 PM 28.2497 -109.1262 307° West  Level FlightAware Approximate
Mon 06:38:00 PM 28.3215 -109.2344 307° West  Level FlightAware Approximate
Mon 06:39:00 PM 28.3931 -109.3428 307° West  Level FlightAware Approximate
Mon 06:40:00 PM 28.4646 -109.4513 307° West  Level FlightAware Approximate
Mon 06:41:00 PM 28.5361 -109.5599 307° West  Level FlightAware Approximate
Mon 06:42:00 PM 28.6075 -109.6687 307° West  Level FlightAware Approximate
Mon 06:43:00 PM 28.6788 -109.7776 307° West  Level FlightAware Approximate
Mon 06:44:00 PM 28.7500 -109.8867 307° West  Level FlightAware Approximate
Mon 06:45:00 PM 28.8322 -109.9853 288° West  Level Estimated
Mon 06:46:00 PM 28.8993 -110.0979 304° West  Level FlightAware Approximate
Mon 06:47:00 PM 28.9663 -110.2106 304° West  Level FlightAware Approximate
Mon 06:48:00 PM 29.0332 -110.3235 304° West  Level FlightAware Approximate
Mon 06:49:00 PM 29.1000 -110.4365 304° West  Level FlightAware Approximate
Mon 06:50:00 PM 29.1667 -110.5497 304° West  Level FlightAware Approximate
Mon 06:51:00 PM 29.2333 -110.6630 304° West  Level FlightAware Approximate
Mon 06:52:00 PM 29.2999 -110.7765 304° West  Level FlightAware Approximate
Mon 06:53:00 PM 29.3663 -110.8901 304° West  Level FlightAware Approximate
Mon 06:54:00 PM 29.4326 -111.0038 304° West  Level FlightAware Approximate
Mon 06:55:00 PM 29.5152 -111.1027 316° Northwest  Level Estimated
Mon 06:56:00 PM 29.5827 -111.2157 304° West  Level FlightAware Approximate
Mon 06:57:00 PM 29.6500 -111.3289 304° West  Level FlightAware Approximate
Mon 06:58:00 PM 29.7173 -111.4423 304° West  Level FlightAware Approximate
Mon 06:59:00 PM 29.8000 -111.5413 317° Northwest  Level Estimated
Mon 07:00:00 PM 29.8826 -111.6405 314° West  Level Estimated
Mon 07:01:00 PM 29.9509 -111.7533 305° West  Level FlightAware Approximate
Mon 07:02:00 PM 30.0191 -111.8662 305° West  Level FlightAware Approximate
Mon 07:03:00 PM 30.0872 -111.9793 305° West  Level FlightAware Approximate
Mon 07:04:00 PM 30.1699 -112.0787 315° West  Level Estimated
Mon 07:05:00 PM 30.2395 -112.1908 306° West  Level FlightAware Approximate
Mon 07:06:00 PM 30.3089 -112.3030 306° West  Level FlightAware Approximate
Mon 07:07:00 PM 30.3783 -112.4154 306° West  Level FlightAware Approximate
Mon 07:08:00 PM 30.4475 -112.5280 306° West  Level FlightAware Approximate
Mon 07:09:00 PM 30.5303 -112.6276 318° Northwest  Level Estimated
Mon 07:10:00 PM 30.6036 -112.7369 308° West  Level FlightAware Approximate
Mon 07:11:00 PM 30.6767 -112.8464 308° West  Level FlightAware Approximate
Mon 07:12:00 PM 30.7498 -112.9560 308° West  Level FlightAware Approximate
Mon 07:13:00 PM 30.8228 -113.0658 308° West  Level FlightAware Approximate
Mon 07:14:00 PM 30.8957 -113.1758 308° West  Level FlightAware Approximate
Mon 07:15:00 PM 30.9684 -113.2859 308° West  Level FlightAware Approximate
Mon 07:16:00 PM 31.0411 -113.3962 308° West  Level FlightAware Approximate
Mon 07:17:00 PM 31.1137 -113.5067 308° West  Level FlightAware Approximate
Mon 07:18:00 PM 31.1863 -113.6173 307° West  Level FlightAware Approximate
Mon 07:19:00 PM 31.2587 -113.7282 307° West  Level FlightAware Approximate
Mon 07:20:00 PM 31.3416 -113.8284 313° West  Level Estimated
Mon 07:21:00 PM 31.4245 -113.9288 318° Northwest  Level Estimated
Mon 07:22:00 PM 31.4980 -114.0390 308° West  Level FlightAware Approximate
Mon 07:23:00 PM 31.5714 -114.1493 308° West  Level FlightAware Approximate
Mon 07:24:00 PM 31.6542 -114.2500 313° West  Level Estimated
Mon 07:25:00 PM 31.7370 -114.3509 321° Northwest  Level Estimated
Mon 07:26:00 PM 31.8198 -114.4519 317° Northwest  Level Estimated
Mon 07:27:00 PM 31.8933 -114.5625 308° West  Level FlightAware Approximate
Mon 07:28:00 PM 31.9737 -114.6610 314° West  Level Estimated
Mon 07:29:00 PM 32.0540 -114.7596 314° West  Level Estimated
Mon 07:30:00 PM 32.1342 -114.8585 314° West  Level Estimated
Mon 07:31:00 PM 32.2144 -114.9575 314° West  Level Estimated
Mon 07:32:00 PM 32.2945 -115.0566 314° West  Level Estimated
Mon 07:32:44 PM 32.4647 -115.3067 313° West 415 478 38,000  Level Los Angeles Center
Mon 07:33:00 PM 32.3745 -115.1560 314° West  Level Estimated
Mon 07:33:46 PM 32.5403 -115.4456 303° West 419 482 37,900  Level Los Angeles Center
Mon 07:34:00 PM 32.4544 -115.2555 314° West  Level Estimated
Mon 07:34:48 PM 32.6022 -115.5622 302° West 418 481 38,000  Level Los Angeles Center
Mon 07:35:00 PM 32.5342 -115.3552 314° West  Level Estimated
Mon 07:35:50 PM 32.6500 -115.6564 301° West 418 481 38,000  Level Los Angeles Center
Mon 07:36:00 PM 32.6140 -115.4551 313° West  Level Estimated
Mon 07:36:53 PM 32.6961 -115.8169 289° West 427 491 38,000  Level Los Angeles Center
Mon 07:37:00 PM 32.6937 -115.5552 313° West  Level Estimated
Mon 07:37:55 PM 32.7328 -115.9506 288° West 427 491 38,000  Level Los Angeles Center
Mon 07:39:09 PM 32.7703 -116.0864 288° West 431 496 38,000  Level Los Angeles Center
Mon 07:40:11 PM 32.8161 -116.2581 288° West 428 493 38,000  Level Los Angeles Center
Mon 07:41:13 PM 32.8492 -116.3947 286° West 430 495 38,000  Level Los Angeles Center
Mon 07:42:16 PM 32.8889 -116.5283 290° West 425 489 38,000 -48 Level Los Angeles Center
Mon 07:43:18 PM 32.9314 -116.6875 288° West 418 481 37,900  Descending Los Angeles Center
Mon 07:44:20 PM 32.9656 -116.8189 287° West 417 480 38,000  Climbing Los Angeles Center
Mon 07:45:22 PM 32.9997 -116.9486 287° West 412 474 37,900  Descending Los Angeles Center
Mon 07:46:24 PM 33.0344 -117.0808 287° West 416 479 38,000 48 Climbing Los Angeles Center
Mon 07:47:26 PM 33.0678 -117.2125 287° West 420 483 38,000  Level Los Angeles Center
Mon 07:48:27 PM 33.1022 -117.3439 287° West 417 480 38,000  Level Los Angeles Center
Mon 07:49:30 PM 33.1769 -117.4833 303° West 414 476 38,000  Level Los Angeles Center
Mon 07:50:32 PM 33.2442 -117.5958 306° West 415 478 38,000  Level Los Angeles Center
Mon 07:51:34 PM 33.3117 -117.7072 306° West 415 478 38,000  Level Los Angeles Center
Mon 07:52:36 PM 33.3775 -117.8192 305° West 412 474 38,000  Level Los Angeles Center
Mon 07:53:38 PM 33.4444 -117.9308 306° West 413 475 38,000  Level Los Angeles Center
Mon 07:54:40 PM 33.5239 -118.0653 305° West 412 474 38,000  Level Los Angeles Center
Mon 07:55:42 PM 33.5911 -118.1786 305° West 414 476 38,000  Level Los Angeles Center
Mon 07:56:44 PM 33.6583 -118.2928 305° West 413 475 38,000  Level Los Angeles Center
Mon 07:57:46 PM 33.7236 -118.4064 305° West 415 478 38,000  Level Los Angeles Center
Mon 07:58:48 PM 33.7950 -118.5283 305° West 416 479 38,000  Level Los Angeles Center
Mon 07:59:50 PM 33.8494 -118.6208 305° West 420 483 38,000  Level Los Angeles Center
Mon 08:00:52 PM 33.9281 -118.7561 305° West 415 478 38,000  Level Los Angeles Center
Mon 08:01:54 PM 33.9936 -118.8706 305° West 415 478 38,000  Level Los Angeles Center
Mon 08:02:56 PM 34.0739 -118.9700 314° West 412 474 38,000  Level Los Angeles Center
Mon 08:03:58 PM 34.1706 -119.0889 315° West 413 475 38,000  Level Los Angeles Center
Mon 08:05:00 PM 34.2511 -119.1883 314° West 414 476 38,000  Level Los Angeles Center
Mon 08:06:02 PM 34.3303 -119.2869 314° West 412 474 38,000  Level Los Angeles Center
Mon 08:07:03 PM 34.4108 -119.3850 315° West 410 472 38,000  Level Los Angeles Center
Mon 08:08:05 PM 34.4900 -119.4831 314° West 408 470 38,000  Level Los Angeles Center
Mon 08:09:07 PM 34.5544 -119.5622 315° West 410 472 38,000  Level Los Angeles Center
Mon 08:10:09 PM 34.6656 -119.6978 315° West 409 471 38,000  Level Los Angeles Center
Mon 08:11:11 PM 34.7456 -119.7983 314° West 412 474 38,000  Level Los Angeles Center
Mon 08:12:13 PM 34.8256 -119.8989 314° West 413 475 38,000  Level Los Angeles Center
Mon 08:13:15 PM 34.9072 -119.9994 315° West 416 479 38,000  Level Los Angeles Center
Mon 08:14:16 PM 34.9867 -120.1006 314° West 414 476 38,000  Level Los Angeles Center
Mon 08:15:18 PM 35.0639 -120.1961 315° West 413 475 38,000  Level Los Angeles Center
Mon 08:16:20 PM 35.1603 -120.3181 314° West 417 480 38,000  Level Los Angeles Center
Mon 08:17:22 PM 35.2375 -120.4175 314° West 411 473 38,000  Level Los Angeles Center
Mon 08:18:24 PM 35.3181 -120.5203 314° West 418 481 38,000  Level Los Angeles Center
Mon 08:19:26 PM 35.3961 -120.6214 313° West 418 481 38,000  Level Los Angeles Center
Mon 08:20:27 PM 35.4750 -120.7214 314° West 413 475 38,000  Level Los Angeles Center
Mon 08:21:29 PM 35.5539 -120.8225 314° West 412 474 38,000  Level Los Angeles Center
Mon 08:22:31 PM 35.6564 -120.9203 322° Northwest 406 467 38,000  Level Los Angeles Center
Mon 08:23:33 PM 35.7467 -121.0053 323° Northwest 408 470 38,000 -48 Level Los Angeles Center
Mon 08:24:35 PM 35.8375 -121.0900 323° Northwest 409 471 37,900  Descending Los Angeles Center
Mon 08:25:37 PM 35.9269 -121.1753 322° Northwest 406 467 38,000 -1,014 Climbing Los Angeles Center
Mon 08:26:57 PM 36.0506 -121.2925 323° Northwest 400 460 35,500 -2,255 Descending Oakland Center
Mon 08:27:58 PM 36.1389 -121.3764 323° Northwest 400 460 32,700 -2,459 Descending Oakland Center
Mon 08:28:59 PM 36.2281 -121.4614 322° Northwest 402 463 30,500 -2,164 Descending Oakland Center
Mon 08:30:00 PM 36.3131 -121.5456 321° Northwest 393 452 28,300 -2,115 Descending Oakland Center
Mon 08:31:01 PM 36.3978 -121.6239 323° Northwest 382 440 26,200 -2,262 Descending Oakland Center
Mon 08:32:02 PM 36.4947 -121.7200 321° Northwest 371 427 23,700 -2,195 Descending Oakland Center
Mon 08:33:04 PM 36.5725 -121.7964 322° Northwest 358 412 21,700 -1,805 Descending Oakland Center
Mon 08:34:05 PM 36.6428 -121.8631 323° Northwest 343 395 20,000 -1,721 Descending Oakland Center
Mon 08:35:06 PM 36.7147 -121.9369 321° Northwest 337 388 18,200 -2,016 Descending Oakland Center
Mon 08:36:13 PM 36.8167 -121.9833 340° North 345 397 15,700 -1,918 Descending Northern Cal TRACON
Mon 08:37:08 PM 36.8933 -122.0028 349° North 335 386 14,300 -1,655 Descending Oakland Center
Mon 08:38:09 PM 36.9822 -122.0258 348° North 328 377 12,500 -1,820 Descending Oakland Center
Mon 08:39:10 PM 37.0847 -122.0536 348° North 314 361 10,600 -1,230 Descending Oakland Center
Mon 08:40:11 PM 37.1678 -122.0764 348° North 307 353 10,000 -738 Descending Oakland Center
Mon 08:41:12 PM 37.2406 -122.0950 348° North 266 306 9,100 -1,180 Descending Oakland Center
Mon 08:42:13 PM 37.3136 -122.1142 348° North 268 308 7,600 -1,623 Descending Oakland Center
Mon 08:43:14 PM 37.3869 -122.1342 348° North 270 311 5,800 -1,721 Descending Oakland Center
Mon 08:44:15 PM 37.4597 -122.1519 349° North 269 310 4,100 -885 Descending Oakland Center
Mon 08:45:16 PM 37.5236 -122.1481 North 245 282 4,000 -537 Descending Oakland Center
Mon 08:46:18 PM 37.5492 -122.2031 300° West 213 245 3,000 -1,073 Descending Oakland Center
Mon 08:47:19 PM 37.5692 -122.2572 295° West 187 215 1,800 -984 Descending Oakland Center
Mon 08:48:20 PM 37.5925 -122.3089 300° West 176 203 1,000 -787 Descending Oakland Center
Mon 08:49:21 PM 37.6156 -122.3619 299° West 170 196 200 -787 Descending Oakland Center
Mon 08:51:00 PM 37.6167 -122.3667 322° Northwest  Level FlightAware Approximate

Login

Don't have an account? Register now (free) for customized features, flight alerts, and more!